Terminal Aerodrome Forecast
Issued by NWS

Home | Current Version | Previous Version | Text Only | Print | Product List | Glossary Off
Versions: 1 2 3 4 5 6 7 8 9 10 11 12 13 14 15 16 17 18

000
FTUS42 KMHX 212300
TAFOAJ
TAF
KOAJ 212340Z 2200/2224 00000KT P6SM SCT015 BKN050
     FM220500 00000KT 4SM BR SCT005 BKN120
     FM221300 14005KT P6SM VCSH SCT015 BKN030
      AMD LTD TO CLD VIS AND WIND=

USA.gov is the U.S. government's official web portal to all federal, state and local government web resources and services.